Time;durP1;ratioP1;P1;durP2;ratioP2;P2;SDS_P1;SDS_P2;PMS_P1;PMS_P2;Temp;Humidity;BMP_temperature;BMP_pressure;BME280_temperature;BME280_humidity;BME280_pressure;Samples;Min_cycle;Max_cycle;Signal;HPM_P1;HPM_P2
2023/08/18 00:00:15;;;;;;;;;;;19.40;56.10;;;15.47;100.00;95567.34;5014102;28;19909;-46
2023/08/18 00:02:41;;;;;;;;;;;19.40;56.20;;;15.44;100.00;95562.56;5014128;28;20011;-44
2023/08/18 00:05:08;;;;;;;;;;;19.40;56.30;;;15.43;100.00;95560.97;5013227;28;20016;-49
2023/08/18 00:07:34;;;;;;;;;;;19.40;56.40;;;15.44;100.00;95562.56;5014266;28;19909;-51
2023/08/18 00:10:02;;;;;;;;;;;19.40;56.50;;;15.45;100.00;95559.59;5010481;28;19928;-48
2023/08/18 00:12:28;;;;;;;;;;;19.40;56.50;;;15.44;100.00;95558.00;5013284;28;19951;-49
2023/08/18 00:14:54;;;;;;;;;;;19.40;56.60;;;15.44;100.00;95560.66;5012655;28;19936;-45
2023/08/18 00:17:20;;;;;;;;;;;19.40;56.60;;;15.44;100.00;95555.31;5012924;28;20275;-51
2023/08/18 00:19:47;;;;;;;;;;;19.40;56.70;;;15.45;100.00;95564.97;5014143;28;19909;-46
2023/08/18 00:22:13;;;;;;;;;;;19.30;56.70;;;15.45;100.00;95564.97;5012763;28;19924;-48
2023/08/18 00:24:39;;;;;;;;;;;19.40;56.80;;;15.43;100.00;95556.41;5012473;28;20284;-46
2023/08/18 00:27:05;;;;;;;;;;;19.40;56.80;;;15.40;100.00;95559.69;5013783;28;20364;-44
2023/08/18 00:29:30;;;;;;;;;;;19.40;56.90;;;15.43;100.00;95560.97;5012557;28;19995;-49
2023/08/18 00:31:58;;;;;;;;;;;19.40;56.90;;;15.44;100.00;95554.50;5013621;28;20276;-45
2023/08/18 00:34:23;;;;;;;;;;;19.40;57.60;;;15.44;100.00;95566.03;5012654;28;19910;-47
2023/08/18 00:36:49;;;;;;;;;;;19.40;57.00;;;15.45;100.00;95566.88;5013457;28;19909;-46
2023/08/18 00:39:15;;;;;;;;;;;19.40;57.10;;;15.44;100.00;95557.19;5013601;28;20298;-47
2023/08/18 00:41:41;;;;;;;;;;;19.30;57.10;;;15.42;100.00;95565.56;5013059;28;19955;-45
2023/08/18 00:44:07;;;;;;;;;;;19.30;57.10;;;15.43;100.00;95555.63;5013201;28;19909;-46
2023/08/18 00:46:33;;;;;;;;;;;19.30;57.20;;;15.45;100.00;95554.22;5012627;28;20363;-45
2023/08/18 00:49:05;;;;;;;;;;;19.30;57.30;;;15.45;100.00;95554.22;5011834;28;19935;-46
2023/08/18 00:51:34;;;;;;;;;;;19.40;57.40;;;15.44;100.00;95544.56;5013213;28;19944;-45
2023/08/18 00:54:00;;;;;;;;;;;19.30;57.40;;;15.41;100.00;95553.22;5011351;28;19969;-49
2023/08/18 00:56:26;;;;;;;;;;;19.40;57.40;;;15.40;100.00;95553.53;5013107;28;20012;-51
2023/08/18 00:58:53;;;;;;;;;;;19.30;57.40;;;15.38;100.00;95550.31;5012102;28;20003;-47
2023/08/18 01:08:41;;;;;;;;;;;19.30;57.70;;;15.31;100.00;95550.72;5004460;28;19923;-48
2023/08/18 01:11:58;;;;;;;;;;;19.30;57.80;;;15.30;100.00;95542.97;5012011;28;19909;-48
2023/08/18 01:14:32;;;;;;;;;;;19.30;57.90;;;15.30;100.00;95540.28;5010392;28;19909;-49
2023/08/18 01:17:07;;;;;;;;;;;19.20;57.80;;;15.25;100.00;95543.84;5026908;28;19909;-48
2023/08/18 01:19:35;;;;;;;;;;;19.20;57.90;;;15.21;100.00;95540.16;5027567;28;20336;-46
2023/08/18 01:22:02;;;;;;;;;;;19.20;57.90;;;15.20;100.00;95534.00;5011704;28;19909;-47
2023/08/18 01:24:29;;;;;;;;;;;19.20;58.60;;;15.15;100.00;95544.81;5011537;28;19916;-51
2023/08/18 01:26:54;;;;;;;;;;;19.10;58.00;;;15.10;100.00;95536.84;5012351;28;19948;-50
2023/08/18 01:29:24;;;;;;;;;;;19.10;58.00;;;15.09;100.00;95540.63;5007147;28;19971;-46
2023/08/18 01:31:59;;;;;;;;;;;19.10;58.10;;;15.10;100.00;95536.84;5023073;28;19910;-49
2023/08/18 01:34:29;;;;;;;;;;;19.10;58.20;;;15.08;100.00;95533.66;5003132;28;20337;-48
2023/08/18 01:36:57;;;;;;;;;;;19.10;58.30;;;15.06;100.00;95540.41;5011572;28;19909;-49
2023/08/18 01:39:26;;;;;;;;;;;19.00;58.30;;;15.03;100.00;95541.78;5011077;28;19913;-53
2023/08/18 01:41:52;;;;;;;;;;;19.00;58.40;;;15.03;100.00;95544.47;5023287;28;20004;-53
2023/08/18 01:44:18;;;;;;;;;;;19.00;58.40;;;15.02;100.00;95538.31;5025077;28;20008;-49
2023/08/18 01:46:46;;;;;;;;;;;19.00;58.40;;;15.00;100.00;95535.13;5011448;28;20389;-48
2023/08/18 01:49:13;;;;;;;;;;;19.00;58.50;;;14.96;100.00;95538.69;5012309;28;19913;-49
2023/08/18 01:51:39;;;;;;;;;;;18.90;58.50;;;14.95;100.00;95543.28;5012390;28;19909;-47
2023/08/18 01:54:05;;;;;;;;;;;18.90;58.60;;;14.97;100.00;95540.28;5010622;28;20341;-48
2023/08/18 01:56:31;;;;;;;;;;;18.90;58.70;;;14.96;100.00;95536.00;5012470;28;19921;-47
2023/08/18 01:58:56;;;;;;;;;;;18.90;58.70;;;14.99;100.00;95530.06;5011207;28;20264;-47
2023/08/18 02:01:22;;;;;;;;;;;18.90;58.80;;;14.97;100.00;95530.34;5012178;28;19913;-47
2023/08/18 02:03:48;;;;;;;;;;;18.90;58.80;;;14.97;100.00;95524.97;5011544;28;19996;-44
2023/08/18 02:06:14;;;;;;;;;;;18.90;58.90;;;14.91;100.00;95518.09;5011779;28;19909;-49
2023/08/18 02:08:40;;;;;;;;;;;18.90;58.90;;;14.91;100.00;95520.00;5011687;28;19920;-49
2023/08/18 02:11:06;;;;;;;;;;;18.90;58.90;;;14.92;100.00;95522.41;5008191;28;19909;-51
2023/08/18 02:13:33;;;;;;;;;;;18.90;59.60;;;14.91;100.00;95522.69;5012159;28;19909;-48
2023/08/18 02:15:59;;;;;;;;;;;18.90;59.00;;;14.91;100.00;95528.03;5010600;28;19949;-48
2023/08/18 02:18:25;;;;;;;;;;;18.90;59.10;;;14.91;100.00;95528.03;5011252;28;20012;-46
2023/08/18 02:21:02;;;;;;;;;;;18.90;59.20;;;14.90;100.00;95527.25;5016386;28;19983;-48
2023/08/18 02:23:28;;;;;;;;;;;18.90;59.30;;;14.93;100.00;95525.88;5014762;28;20295;-46
2023/08/18 02:26:02;;;;;;;;;;;18.90;59.40;;;14.97;100.00;95534.91;5016278;28;19909;-49
2023/08/18 02:28:29;;;;;;;;;;;18.90;59.50;;;14.98;100.00;95531.97;5015041;28;19920;-52
2023/08/18 02:31:06;;;;;;;;;;;18.90;59.50;;;15.02;100.00;95526.81;5015984;28;19909;-50
2023/08/18 02:33:34;;;;;;;;;;;19.00;59.60;;;15.06;100.00;95530.47;5015655;28;19913;-51
2023/08/18 02:36:01;;;;;;;;;;;19.00;59.60;;;15.12;100.00;95526.63;5014773;28;19909;-49
2023/08/18 02:38:28;;;;;;;;;;;19.10;59.60;;;15.15;100.00;95530.59;5015794;28;19948;-48
2023/08/18 02:40:54;;;;;;;;;;;19.10;60.40;;;15.17;100.00;95531.13;5014759;28;19939;-48
2023/08/18 02:43:22;;;;;;;;;;;19.20;59.70;;;15.18;100.00;95532.69;5016659;28;19909;-47
2023/08/18 02:45:48;;;;;;;;;;;19.10;59.70;;;15.19;100.00;95528.91;5016331;28;20355;-47
2023/08/18 02:48:15;;;;;;;;;;;19.20;59.70;;;15.22;100.00;95528.31;5026922;28;19956;-47
2023/08/18 02:50:41;;;;;;;;;;;19.20;59.80;;;15.22;100.00;95525.66;5008435;28;20003;-47
2023/08/18 02:53:07;;;;;;;;;;;19.20;59.80;;;15.21;100.00;95529.44;5014590;28;20419;-48
2023/08/18 02:55:34;;;;;;;;;;;19.20;59.80;;;15.20;100.00;95525.97;5015196;28;20299;-46
2023/08/18 02:58:01;;;;;;;;;;;19.20;59.80;;;15.19;100.00;95529.72;5014519;28;19927;-47
2023/08/18 03:00:27;;;;;;;;;;;19.20;59.80;;;15.16;100.00;95534.88;5015341;28;19932;-47
2023/08/18 03:02:53;;;;;;;;;;;19.20;59.70;;;15.12;100.00;95523.16;5015096;28;19913;-47
2023/08/18 03:05:19;;;;;;;;;;;19.20;59.70;;;15.08;100.00;95525.63;5013924;28;20330;-48
2023/08/18 03:07:45;;;;;;;;;;;19.10;59.70;;;15.04;100.00;95516.56;5015426;28;19951;-46
2023/08/18 03:10:11;;;;;;;;;;;19.10;59.70;;;15.01;100.00;95525.19;5014042;28;19913;-47
2023/08/18 03:12:37;;;;;;;;;;;19.10;59.70;;;14.99;100.00;95527.38;5015165;28;19909;-49
2023/08/18 03:15:04;;;;;;;;;;;19.10;59.80;;;14.98;100.00;95528.47;5015034;28;19920;-49
2023/08/18 03:17:29;;;;;;;;;;;19.00;59.80;;;14.97;100.00;95530.34;5013904;28;19913;-48
2023/08/18 03:19:55;;;;;;;;;;;19.00;59.90;;;14.95;100.00;95531.75;5014683;28;19916;-50
2023/08/18 03:22:21;;;;;;;;;;;19.00;59.90;;;14.92;100.00;95533.13;5009326;28;19910;-47
2023/08/18 03:24:47;;;;;;;;;;;19.00;60.00;;;14.91;100.00;95534.19;5009151;28;20359;-50
2023/08/18 03:27:13;;;;;;;;;;;19.00;60.00;;;14.87;100.00;95535.88;5015139;28;19967;-48
2023/08/18 03:29:39;;;;;;;;;;;18.90;60.00;;;14.84;100.00;95538.34;5013208;28;19913;-48
2023/08/18 03:32:05;;;;;;;;;;;18.90;60.10;;;14.83;100.00;95548.28;5014728;28;19913;-47
2023/08/18 03:34:31;;;;;;;;;;;18.90;60.20;;;14.81;100.00;95543.19;5012403;28;20339;-47
2023/08/18 03:36:58;;;;;;;;;;;18.90;60.20;;;14.81;100.00;95534.38;5002980;28;19909;-49
2023/08/18 03:39:23;;;;;;;;;;;18.90;60.30;;;14.78;100.00;95537.63;5014956;28;20333;-47
2023/08/18 03:41:49;;;;;;;;;;;18.80;60.30;;;14.75;100.00;95530.16;5005186;28;19909;-46
2023/08/18 03:44:15;;;;;;;;;;;18.90;60.40;;;14.71;100.00;95532.63;5014961;28;19916;-47
2023/08/18 03:46:42;;;;;;;;;;;18.80;60.30;;;14.72;100.00;95530.75;5013432;28;19944;-48
2023/08/18 03:49:07;;;;;;;;;;;18.80;60.40;;;14.72;100.00;95533.44;5014537;28;19913;-47
2023/08/18 03:51:33;;;;;;;;;;;18.80;60.60;;;14.69;100.00;95526.75;5014914;28;19920;-51
2023/08/18 03:53:59;;;;;;;;;;;18.70;60.60;;;14.71;100.00;95534.53;5026121;28;19968;-51
2023/08/18 03:56:25;;;;;;;;;;;18.70;60.60;;;14.68;100.00;95529.75;5014414;28;20003;-48
2023/08/18 03:58:51;;;;;;;;;;;18.70;60.60;;;14.66;100.00;95530.03;5013452;28;19909;-48
2023/08/18 04:01:16;;;;;;;;;;;18.70;60.80;;;14.67;100.00;95531.63;5014027;28;20429;-47
2023/08/18 04:03:43;;;;;;;;;;;18.70;60.80;;;14.66;100.00;95532.72;5014171;28;19916;-47
2023/08/18 04:06:12;;;;;;;;;;;18.70;60.90;;;14.67;100.00;95530.84;5013199;28;19975;-47
2023/08/18 04:08:43;;;;;;;;;;;18.70;61.00;;;14.65;100.00;95539.16;5014066;28;20299;-46
2023/08/18 04:11:11;;;;;;;;;;;18.70;61.10;;;14.66;100.00;95542.63;5012852;28;19909;-47
2023/08/18 04:13:36;;;;;;;;;;;18.70;61.10;;;14.65;100.00;95541.84;5013778;28;19909;-47
2023/08/18 04:16:02;;;;;;;;;;;18.70;61.20;;;14.63;100.00;95543.22;5012936;28;19916;-46
2023/08/18 04:18:29;;;;;;;;;;;18.70;61.20;;;14.62;100.00;95537.06;5014141;28;19909;-47
2023/08/18 04:20:55;;;;;;;;;;;18.70;61.10;;;14.62;100.00;95534.38;5014315;28;19955;-49
2023/08/18 04:23:21;;;;;;;;;;;18.70;61.10;;;14.60;100.00;95546.47;5013181;28;19909;-47
2023/08/18 04:25:47;;;;;;;;;;;18.70;61.20;;;14.61;100.00;95548.88;5013964;28;19960;-47
2023/08/18 04:28:13;;;;;;;;;;;18.70;61.20;;;14.62;100.00;95549.69;5012690;28;19971;-50
2023/08/18 04:30:38;;;;;;;;;;;18.70;61.30;;;14.63;100.00;95537.84;5013806;28;19948;-47
2023/08/18 04:33:04;;;;;;;;;;;18.60;61.30;;;14.63;100.00;95544.00;5013800;28;19916;-48
2023/08/18 04:35:30;;;;;;;;;;;18.70;61.40;;;14.66;100.00;95553.34;5008694;28;19909;-46
2023/08/18 04:37:56;;;;;;;;;;;18.70;61.40;;;14.67;100.00;95544.25;5017275;28;19920;-49
2023/08/18 04:40:23;;;;;;;;;;;18.70;61.40;;;14.68;100.00;95543.94;5011900;28;20380;-48
2023/08/18 04:42:49;;;;;;;;;;;18.70;61.40;;;14.69;100.00;95550.09;5013792;28;19955;-47
2023/08/18 04:45:15;;;;;;;;;;;18.70;61.40;;;14.70;100.00;95554.41;5013471;28;20031;-52
2023/08/18 04:47:41;;;;;;;;;;;18.80;61.50;;;14.71;100.00;95554.09;5012484;28;20003;-47
2023/08/18 04:50:07;;;;;;;;;;;18.80;61.50;;;14.77;100.00;95554.81;5013411;28;20261;-50
2023/08/18 04:52:33;;;;;;;;;;;18.90;61.50;;;14.77;100.00;95558.28;5012324;28;19913;-49
2023/08/18 04:54:59;;;;;;;;;;;18.90;61.50;;;14.78;100.00;95559.88;5013292;28;19917;-47
2023/08/18 04:57:24;;;;;;;;;;;18.90;61.50;;;14.82;100.00;95560.09;5013248;28;20354;-51
2023/08/18 04:59:50;;;;;;;;;;;19.00;61.50;;;14.91;100.00;95554.84;5013906;28;20280;-49
2023/08/18 05:02:16;;;;;;;;;;;19.00;61.50;;;14.98;100.00;95560.66;5014317;28;19909;-46
2023/08/18 05:04:42;;;;;;;;;;;19.10;61.60;;;15.09;100.00;95559.41;5012267;28;19909;-46
2023/08/18 05:07:07;;;;;;;;;;;19.20;61.50;;;15.25;100.00;95560.72;5012929;28;19913;-47
2023/08/18 05:09:34;;;;;;;;;;;19.30;61.60;;;15.40;100.00;95557.00;5013083;28;19917;-47
2023/08/18 05:12:00;;;;;;;;;;;19.40;61.60;;;15.55;100.00;95561.31;5011946;28;19955;-48
2023/08/18 05:14:26;;;;;;;;;;;19.60;61.60;;;15.71;100.00;95561.84;5011637;28;19916;-47
2023/08/18 05:16:52;;;;;;;;;;;19.70;61.60;;;15.90;100.00;95551.81;5005728;28;19910;-50
2023/08/18 05:19:17;;;;;;;;;;;19.80;61.50;;;16.07;100.00;95561.13;5012924;28;20283;-47
2023/08/18 05:21:43;;;;;;;;;;;20.00;61.40;;;16.23;100.00;95561.63;5012789;28;19909;-48
2023/08/18 05:24:09;;;;;;;;;;;20.20;61.30;;;16.40;100.00;95565.28;5011828;28;19916;-47
2023/08/18 05:26:34;;;;;;;;;;;20.40;61.20;;;16.57;100.00;95572.72;5012509;28;19916;-52
2023/08/18 05:29:00;;;;;;;;;;;20.60;61.00;;;16.77;100.00;95562.66;5011936;28;19913;-47
2023/08/18 05:31:26;;;;;;;;;;;20.80;60.80;;;16.99;100.00;95569.94;5009509;28;19944;-46
2023/08/18 05:33:52;;;;;;;;;;;21.10;60.70;;;17.14;100.00;95568.75;5011443;28;19909;-47
2023/08/18 05:36:18;;;;;;;;;;;21.30;60.50;;;17.27;100.00;95571.41;5011781;28;20384;-47
2023/08/18 05:38:44;;;;;;;;;;;21.60;60.20;;;17.51;100.00;95578.34;5012546;28;19909;-50
2023/08/18 05:41:13;;;;;;;;;;;21.80;59.90;;;17.75;100.00;95570.69;5002950;28;20383;-46
2023/08/18 05:43:42;;;;;;;;;;;22.10;60.40;;;17.99;100.00;95577.66;5011842;28;20058;-47
2023/08/18 05:46:08;;;;;;;;;;;22.40;59.50;;;18.25;100.00;95577.72;5011336;28;20416;-49
2023/08/18 05:48:35;;;;;;;;;;;22.70;59.20;;;18.47;100.00;95574.91;5012385;28;19920;-48
2023/08/18 05:51:01;;;;;;;;;;;23.00;59.00;;;18.72;99.93;95573.41;5010146;28;20411;-51
2023/08/18 05:53:28;;;;;;;;;;;23.30;58.70;;;18.95;97.14;95584.81;5010794;28;19932;-50
2023/08/18 05:55:54;;;;;;;;;;;23.60;58.50;;;19.13;94.61;95584.84;5012322;28;19909;-53
2023/08/18 05:58:20;;;;;;;;;;;23.90;58.10;;;19.33;93.53;95573.34;5008845;28;19909;-53
2023/08/18 06:00:52;;;;;;;;;;;24.20;57.90;;;19.53;91.03;95581.94;5007950;28;19909;-49
2023/08/18 06:03:21;;;;;;;;;;;24.50;57.50;;;19.71;88.00;95582.69;5011556;28;19917;-49
2023/08/18 06:05:49;;;;;;;;;;;24.80;57.20;;;19.88;86.63;95572.63;5011312;28;19908;-48
2023/08/18 06:08:16;;;;;;;;;;;25.10;56.90;;;20.08;87.01;95575.72;5011258;28;19916;-50
2023/08/18 06:10:42;;;;;;;;;;;25.30;56.60;;;20.30;84.94;95578.13;5011070;28;19909;-48
2023/08/18 06:13:08;;;;;;;;;;;25.70;56.50;;;20.53;83.33;95564.38;5010179;28;19909;-49
2023/08/18 06:15:35;;;;;;;;;;;25.90;56.10;;;20.76;82.80;95571.03;5012153;28;19909;-49
2023/08/18 06:18:01;;;;;;;;;;;26.20;55.90;;;21.00;80.05;95575.81;5008091;28;20057;-50
2023/08/18 06:20:27;;;;;;;;;;;26.50;55.60;;;21.30;75.47;95573.00;5012258;28;20018;-51
2023/08/18 06:22:53;;;;;;;;;;;26.80;55.30;;;21.41;70.29;95574.19;5009001;28;20368;-49
2023/08/18 06:25:18;;;;;;;;;;;26.90;55.00;;;21.61;70.66;95582.59;5011355;28;19916;-47
2023/08/18 06:27:44;;;;;;;;;;;27.10;54.70;;;21.80;70.99;95580.16;5010802;28;19915;-48
2023/08/18 06:30:11;;;;;;;;;;;27.40;54.40;;;21.99;68.84;95581.53;5011119;28;19939;-48
2023/08/18 06:32:37;;;;;;;;;;;27.70;54.10;;;22.26;67.89;95580.91;5011929;28;19916;-48
2023/08/18 06:35:03;;;;;;;;;;;27.90;53.70;;;22.56;65.68;95578.75;5010623;28;19913;-48
2023/08/18 06:37:29;;;;;;;;;;;28.20;54.00;;;22.79;63.58;95581.75;5011915;28;20368;-48
2023/08/18 06:39:55;;;;;;;;;;;28.50;53.10;;;23.06;61.91;95582.16;5011319;28;19916;-46
2023/08/18 06:42:21;;;;;;;;;;;28.80;52.70;;;23.32;61.68;95576.31;5012108;28;20318;-51
2023/08/18 06:44:47;;;;;;;;;;;29.10;52.30;;;23.53;60.24;95582.34;5011693;28;19916;-50
2023/08/18 06:47:13;;;;;;;;;;;29.30;51.90;;;23.78;59.53;95580.31;5011055;28;19931;-49
2023/08/18 06:49:38;;;;;;;;;;;29.60;51.50;;;24.06;59.66;95584.06;5011850;28;20398;-49
2023/08/18 06:52:04;;;;;;;;;;;29.90;51.20;;;24.31;57.10;95587.41;5009135;28;20414;-49
2023/08/18 06:54:30;;;;;;;;;;;30.20;50.90;;;24.50;56.52;95590.22;5007631;23;19961;-45
2023/08/18 06:56:56;;;;;;;;;;;30.40;50.40;;;24.64;55.24;95589.78;4968216;28;19922;-46
2023/08/18 06:59:22;;;;;;;;;;;30.60;50.10;;;24.80;54.55;95590.53;4971795;28;19917;-48
2023/08/18 07:01:47;;;;;;;;;;;30.80;49.60;;;24.82;54.29;95588.25;4972957;28;19964;-46
2023/08/18 07:04:13;;;;;;;;;;;31.00;49.30;;;24.93;53.61;95591.97;4973379;28;19920;-48
2023/08/18 07:06:44;;;;;;;;;;;31.20;48.90;;;25.23;53.08;95586.00;4976116;28;20016;-49
2023/08/18 07:09:11;;;;;;;;;;;31.30;48.60;;;25.41;52.44;95583.63;4976808;28;19972;-47
2023/08/18 07:11:37;;;;;;;;;;;31.50;48.20;;;25.68;51.24;95589.19;4975138;28;19910;-49
2023/08/18 07:14:03;;;;;;;;;;;31.60;47.90;;;25.79;50.61;95581.97;4976087;28;19916;-48
2023/08/18 07:16:30;;;;;;;;;;;31.80;47.60;;;26.09;50.22;95587.63;4975098;28;20352;-51
2023/08/18 07:18:57;;;;;;;;;;;32.00;47.30;;;26.31;49.66;95591.50;4976118;28;19916;-47
2023/08/18 07:21:23;;;;;;;;;;;32.20;46.90;;;26.51;49.20;95593.03;4976229;28;19944;-49
2023/08/18 07:23:49;;;;;;;;;;;32.40;46.70;;;26.64;48.54;95593.59;4975022;28;19909;-47
2023/08/18 07:26:16;;;;;;;;;;;32.50;46.40;;;26.95;47.72;95597.94;4975951;28;19980;-50
2023/08/18 07:28:42;;;;;;;;;;;32.70;46.00;;;27.03;47.58;95598.03;4974954;28;19913;-48
2023/08/18 07:31:09;;;;;;;;;;;32.90;45.70;;;27.16;46.01;95596.66;4975733;28;19909;-48
2023/08/18 07:33:35;;;;;;;;;;;33.00;45.40;;;26.90;46.91;95597.47;4975788;28;20364;-49
2023/08/18 07:36:01;;;;;;;;;;;33.10;45.00;;;27.11;45.51;95600.50;4974510;28;19967;-51
2023/08/18 07:38:27;;;;;;;;;;;33.30;44.80;;;27.30;46.34;95604.28;4975843;28;20292;-46
2023/08/18 07:40:53;;;;;;;;;;;33.40;44.50;;;27.51;44.48;95606.47;4974806;28;19910;-48
2023/08/18 07:43:19;;;;;;;;;;;33.50;44.10;;;27.80;44.53;95608.41;4975867;28;19920;-46
2023/08/18 07:45:44;;;;;;;;;;;33.60;43.80;;;27.89;44.63;95611.63;4975598;28;20004;-50
2023/08/18 07:48:12;;;;;;;;;;;33.80;43.60;;;27.89;43.93;95613.53;4974361;28;19916;-50
2023/08/18 07:50:43;;;;;;;;;;;34.00;43.40;;;28.20;43.55;95616.97;4975558;28;19914;-50
2023/08/18 07:53:09;;;;;;;;;;;34.20;43.20;;;28.40;43.09;95606.59;4974830;28;19910;-50
2023/08/18 07:55:36;;;;;;;;;;;34.40;42.90;;;28.68;43.91;95612.31;4975088;28;19971;-49
2023/08/18 07:58:04;;;;;;;;;;;34.60;42.50;;;29.01;43.04;95619.59;4974539;28;19910;-49
2023/08/18 08:00:30;;;;;;;;;;;34.80;42.30;;;29.34;42.61;95622.53;4975299;28;19914;-50
2023/08/18 08:02:57;;;;;;;;;;;35.10;42.10;;;29.79;41.99;95617.63;4975125;28;19917;-48
2023/08/18 08:05:23;;;;;;;;;;;35.40;41.80;;;29.79;41.35;95614.88;4971427;28;19917;-51
2023/08/18 08:07:49;;;;;;;;;;;35.70;41.60;;;29.99;41.30;95616.06;4975176;28;19920;-47
2023/08/18 08:10:16;;;;;;;;;;;36.00;41.20;;;30.25;39.63;95614.97;4974328;28;20364;-48
2023/08/18 08:12:45;;;;;;;;;;;36.30;40.90;;;30.51;39.03;95619.31;4974782;28;19910;-49
2023/08/18 08:15:13;;;;;;;;;;;36.50;41.20;;;30.54;39.42;95612.25;4982871;28;20360;-49
2023/08/18 08:17:40;;;;;;;;;;;36.70;40.30;;;30.62;38.57;95608.31;4974750;28;19941;-50
2023/08/18 08:20:15;;;;;;;;;;;36.90;39.90;;;30.76;39.15;95618.50;4973916;28;20328;-49
2023/08/18 08:22:46;;;;;;;;;;;37.00;39.60;;;31.03;38.77;95613.38;4974158;28;20398;-47
2023/08/18 08:25:13;;;;;;;;;;;37.30;39.40;;;31.04;37.74;95614.94;4971735;28;19949;-47
2023/08/18 08:27:39;;;;;;;;;;;37.40;39.00;;;31.11;38.54;95615.72;4972802;28;19960;-49
2023/08/18 08:30:08;;;;;;;;;;;37.60;38.70;;;31.23;35.58;95613.72;4971234;28;19914;-48
2023/08/18 08:32:34;;;;;;;;;;;37.70;38.20;;;31.38;35.62;95620.78;4972253;28;19917;-49
2023/08/18 08:35:00;;;;;;;;;;;37.80;38.00;;;31.55;36.30;95610.88;4971135;28;19914;-49
2023/08/18 08:37:26;;;;;;;;;;;38.00;37.80;;;31.76;36.43;95616.28;4955006;28;20438;-50
2023/08/18 08:39:51;;;;;;;;;;;38.10;37.60;;;31.75;35.92;95620.22;4972172;28;19941;-49
2023/08/18 08:42:17;;;;;;;;;;;38.20;37.40;;;31.87;35.92;95616.25;4970708;28;19955;-49
2023/08/18 08:44:43;;;;;;;;;;;38.30;37.10;;;32.02;35.26;95611.44;4972059;28;19988;-48
2023/08/18 08:47:10;;;;;;;;;;;38.50;36.80;;;32.21;34.33;95618.41;4971220;28;19964;-49
2023/08/18 08:49:39;;;;;;;;;;;38.50;36.70;;;32.59;34.39;95618.53;4972119;28;19960;-46
2023/08/18 08:52:13;;;;;;;;;;;38.70;36.50;;;32.75;33.44;95621.56;4955056;28;19909;-47
2023/08/18 08:54:52;;;;;;;;;;;38.90;36.20;;;33.05;33.18;95623.63;4974146;28;20032;-46
2023/08/18 08:57:23;;;;;;;;;;;39.10;36.00;;;33.22;33.28;95626.63;4974276;28;19918;-47
2023/08/18 08:59:49;;;;;;;;;;;39.50;35.80;;;33.40;33.35;95625.22;4949561;28;19980;-45
2023/08/18 09:02:15;;;;;;;;;;;39.60;35.40;;;33.60;31.98;95624.66;4973760;28;19924;-46
2023/08/18 09:04:41;;;;;;;;;;;39.80;35.30;;;33.40;32.17;95616.16;4972208;28;20280;-46
2023/08/18 09:07:12;;;;;;;;;;;39.90;34.90;;;33.52;33.09;95621.19;4973506;28;19914;-45
2023/08/18 09:09:38;;;;;;;;;;;40.00;34.60;;;33.49;33.21;95630.25;4972675;28;19922;-45
2023/08/18 09:12:07;;;;;;;;;;;40.20;34.40;;;33.75;31.74;95625.22;4971664;28;19920;-48
2023/08/18 09:14:41;;;;;;;;;;;40.40;34.10;;;33.97;31.50;95632.06;4971285;28;19921;-47
2023/08/18 09:17:08;;;;;;;;;;;40.50;33.80;;;34.11;31.29;95625.56;4972313;28;19918;-47
2023/08/18 09:19:34;;;;;;;;;;;40.50;33.40;;;34.31;30.38;95625.66;4972724;28;20360;-48
2023/08/18 09:22:04;;;;;;;;;;;40.60;33.20;;;34.28;30.85;95630.03;4971796;28;19945;-47
2023/08/18 09:24:32;;;;;;;;;;;40.70;33.20;;;34.41;30.24;95624.72;4973006;28;19914;-50
2023/08/18 09:27:11;;;;;;;;;;;40.80;32.90;;;34.39;31.27;95629.88;4972617;28;19997;-51
2023/08/18 09:29:36;;;;;;;;;;;40.90;32.80;;;34.67;31.36;95628.66;4971912;28;19953;-50
2023/08/18 09:32:03;;;;;;;;;;;41.00;32.60;;;34.97;30.62;95624.19;4972693;28;19957;-51
2023/08/18 09:34:31;;;;;;;;;;;41.20;32.50;;;34.45;30.58;95619.91;4971845;28;19909;-49
2023/08/18 09:36:57;;;;;;;;;;;41.30;32.30;;;34.59;30.87;95610.63;4972989;28;19909;-51
2023/08/18 09:39:26;;;;;;;;;;;41.30;32.10;;;34.74;30.64;95608.41;4972746;28;19916;-48
2023/08/18 09:41:54;;;;;;;;;;;41.40;31.70;;;34.73;30.24;95613.16;4970543;28;19909;-49
2023/08/18 09:44:24;;;;;;;;;;;41.40;31.40;;;34.99;29.77;95603.19;4972799;28;19967;-50
2023/08/18 09:46:55;;;;;;;;;;;41.40;31.40;;;35.27;29.80;95609.44;4971743;28;19910;-50
2023/08/18 09:49:23;;;;;;;;;;;41.50;31.30;;;35.35;29.53;95608.09;4972497;28;19944;-50
2023/08/18 09:52:04;;;;;;;;;;;41.70;31.20;;;35.39;30.70;95608.81;4972687;28;20399;-49
2023/08/18 09:54:43;;;;;;;;;;;41.90;31.00;;;35.41;29.27;95605.59;4946403;28;20008;-51
2023/08/18 09:57:28;;;;;;;;;;;42.00;30.80;;;34.89;30.17;95593.13;4972624;28;19914;-50
2023/08/18 09:59:56;;;;;;;;;;;42.10;30.60;;;34.80;30.81;95592.88;4955601;28;20012;-50
2023/08/18 10:02:31;;;;;;;;;;;42.10;30.40;;;35.34;29.56;95597.44;4955541;28;19909;-49
2023/08/18 10:04:58;;;;;;;;;;;42.20;30.30;;;35.33;29.05;95595.88;4971212;28;20357;-49
2023/08/18 10:07:27;;;;;;;;;;;42.20;30.00;;;35.77;28.50;95589.06;4961011;28;19917;-51
2023/08/18 10:09:56;;;;;;;;;;;42.20;29.90;;;35.75;27.62;95583.16;4966258;28;19921;-49
2023/08/18 10:12:22;;;;;;;;;;;42.20;29.70;;;35.84;28.05;95594.44;4971285;28;20453;-47
2023/08/18 10:14:51;;;;;;;;;;;42.30;29.60;;;36.03;28.55;95586.53;4959321;28;20004;-49
2023/08/18 10:17:23;;;;;;;;;;;42.30;29.60;;;36.40;29.13;95588.03;4954131;28;20543;-52
2023/08/18 10:19:54;;;;;;;;;;;42.40;29.60;;;36.34;28.60;95587.00;4956262;28;19918;-52
2023/08/18 10:22:24;;;;;;;;;;;42.60;29.60;;;36.61;28.52;95591.53;4972486;28;19924;-48
2023/08/18 10:24:52;;;;;;;;;;;42.70;29.50;;;36.40;28.38;95587.25;4972334;28;19910;-49
2023/08/18 10:27:27;;;;;;;;;;;42.80;29.40;;;36.73;28.00;95588.84;4971894;28;19953;-50
2023/08/18 10:30:27;;;;;;;;;;;43.00;29.30;;;37.21;26.62;95594.75;4971523;28;19937;-49
2023/08/18 10:32:58;;;;;;;;;;;43.20;29.20;;;37.60;26.62;95590.09;4959154;28;19910;-49
2023/08/18 10:35:27;;;;;;;;;;;43.40;29.00;;;37.94;26.38;95589.50;4954800;28;20410;-50
2023/08/18 10:38:04;;;;;;;;;;;43.70;28.90;;;37.31;26.97;95598.44;4973327;28;20434;-49
2023/08/18 10:40:36;;;;;;;;;;;43.80;28.60;;;37.23;27.78;95587.53;4958895;28;19910;-48
2023/08/18 10:43:14;;;;;;;;;;;44.00;28.90;;;36.76;28.74;95584.38;4958931;28;19913;-49
2023/08/18 10:45:41;;;;;;;;;;;43.90;27.90;;;37.18;28.13;95578.97;4975880;28;20004;-49
2023/08/18 10:48:09;;;;;;;;;;;43.80;28.00;;;37.07;27.87;95582.00;4969701;28;19914;-50
2023/08/18 10:50:39;;;;;;;;;;;43.90;28.00;;;37.15;28.36;95575.06;4975807;28;19967;-46
2023/08/18 10:53:07;;;;;;;;;;;44.00;28.10;;;37.40;27.54;95568.03;4974848;28;19910;-47
2023/08/18 10:55:33;;;;;;;;;;;44.10;28.00;;;37.37;28.44;95571.69;4974243;28;19968;-46
2023/08/18 10:57:59;;;;;;;;;;;44.20;28.00;;;37.71;27.65;95568.34;4974198;28;19958;-48
2023/08/18 11:00:35;;;;;;;;;;;44.30;28.00;;;37.79;26.55;95566.88;4975899;28;19913;-49
2023/08/18 11:03:03;;;;;;;;;;;44.40;28.00;;;37.78;26.72;95557.00;4976076;28;19977;-50
2023/08/18 11:05:31;;;;;;;;;;;44.50;27.80;;;37.79;26.48;95561.31;4946322;28;19910;-49
2023/08/18 11:07:59;;;;;;;;;;;44.60;27.70;;;37.56;26.80;95564.41;4975059;28;19937;-48
2023/08/18 11:10:26;;;;;;;;;;;44.60;27.60;;;37.46;26.40;95560.75;4974342;28;19921;-46
2023/08/18 11:12:56;;;;;;;;;;;44.70;27.60;;;37.72;27.24;95558.78;4975827;28;19917;-47
2023/08/18 11:15:23;;;;;;;;;;;44.70;27.50;;;38.10;26.04;95561.59;4975431;28;19916;-48
2023/08/18 11:17:50;;;;;;;;;;;44.90;27.40;;;37.89;26.63;95559.44;4974471;28;20016;-49
2023/08/18 11:20:19;;;;;;;;;;;45.10;27.80;;;38.09;25.32;95550.94;4975453;28;19909;-49
2023/08/18 11:22:51;;;;;;;;;;;45.10;27.20;;;38.57;24.53;95540.63;4974524;28;19910;-53